Time;durP1;ratioP1;P1;durP2;ratioP2;P2;SDS_P1;SDS_P2;PMS_P1;PMS_P2;Temp;Humidity;BMP_temperature;BMP_pressure;BME280_temperature;BME280_humidity;BME280_pressure;Samples;Min_cycle;Max_cycle;Signal;HPM_P1;HPM_P2
2022/08/27 00:00:47;;;;;;;8.85;3.30;;;;;;;15.41;85.04;101632.16;5113214;28;20023;-48
2022/08/27 00:03:13;;;;;;;8.15;3.10;;;;;;;15.27;85.44;101638.78;5112839;28;20039;-43
2022/08/27 00:05:39;;;;;;;7.95;2.95;;;;;;;15.18;86.18;101639.44;5112238;28;20043;-45
2022/08/27 00:08:05;;;;;;;8.02;3.75;;;;;;;15.03;86.98;101639.97;5113361;28;20030;-47
2022/08/27 00:10:32;;;;;;;11.30;3.65;;;;;;;14.97;87.63;101629.44;5112963;28;20050;-47
2022/08/27 00:12:58;;;;;;;10.03;3.57;;;;;;;14.82;88.10;101630.81;5112702;28;20024;-43
2022/08/27 00:15:24;;;;;;;7.20;3.40;;;;;;;14.75;88.68;101633.22;5112814;28;20027;-45
2022/08/27 00:17:49;;;;;;;9.55;3.58;;;;;;;14.67;89.06;101620.06;5112273;28;20074;-47
2022/08/27 00:20:18;;;;;;;9.80;3.55;;;;;;;14.54;89.83;101618.84;5112688;28;20027;-45
2022/08/27 00:22:43;;;;;;;7.80;3.42;;;;;;;14.43;90.45;101621.13;5113101;28;20073;-45
2022/08/27 00:25:10;;;;;;;9.10;3.83;;;;;;;14.44;90.66;101622.91;5112142;28;20111;-45
2022/08/27 00:27:36;;;;;;;9.68;3.78;;;;;;;14.33;91.41;101619.13;5112592;28;20364;-46
2022/08/27 00:30:01;;;;;;;13.23;4.32;;;;;;;14.28;91.66;101620.72;5113407;28;20041;-46
2022/08/27 00:32:26;;;;;;;10.27;3.90;;;;;;;14.20;91.96;101619.66;5115588;28;20020;-46
2022/08/27 00:34:52;;;;;;;10.05;4.10;;;;;;;14.16;92.07;101622.19;5116795;28;20042;-48
2022/08/27 00:37:17;;;;;;;8.80;3.90;;;;;;;14.11;92.47;101622.88;5116487;28;20052;-47
2022/08/27 00:39:42;;;;;;;12.05;4.43;;;;;;;14.06;92.88;101615.00;5116062;28;20016;-46
2022/08/27 00:42:08;;;;;;;12.65;3.97;;;;;;;14.10;93.15;101616.81;5116729;28;20114;-47
2022/08/27 00:44:33;;;;;;;10.57;4.00;;;;;;;14.03;93.67;101617.47;5116270;28;20431;-48
2022/08/27 00:47:03;;;;;;;7.13;3.75;;;;;;;13.99;93.72;101619.13;5115615;28;20016;-47
2022/08/27 00:49:52;;;;;;;11.32;4.05;;;;;;;13.92;93.96;101626.69;5116450;28;20115;-44
2022/08/27 00:52:27;;;;;;;10.55;3.95;;;;;;;13.86;94.92;101622.19;5116337;28;20039;-47
2022/08/27 00:54:59;;;;;;;9.68;4.43;;;;;;;13.86;94.49;101627.38;5115629;28;20030;-47
2022/08/27 00:57:25;;;;;;;13.05;5.00;;;;;;;13.79;95.00;101626.31;5116044;28;20028;-45
2022/08/27 00:59:51;;;;;;;11.77;5.22;;;;;;;13.69;95.25;101624.31;5115714;28;20032;-47
2022/08/27 01:02:20;;;;;;;11.05;4.78;;;;;;;13.69;95.65;101620.84;5116203;28;20031;-45
2022/08/27 01:04:50;;;;;;;9.93;4.65;;;;;;;13.63;96.14;101621.53;5116500;28;20020;-44
2022/08/27 01:07:16;;;;;;;8.93;4.70;;;;;;;13.54;96.25;101623.84;5115244;28;20032;-47
2022/08/27 01:09:42;;;;;;;10.60;4.95;;;;;;;13.52;97.27;101618.63;5116083;28;20471;-47
2022/08/27 01:12:09;;;;;;;11.45;5.32;;;;;;;13.55;97.34;101617.84;5115940;28;20030;-45
2022/08/27 01:14:35;;;;;;;12.10;5.40;;;;;;;13.49;97.27;101622.00;5115184;28;20031;-45
2022/08/27 01:17:02;;;;;;;10.55;5.40;;;;;;;13.41;96.97;101620.88;5115943;28;20368;-48
2022/08/27 01:19:36;;;;;;;9.33;4.90;;;;;;;13.31;96.89;101611.94;5115557;28;20424;-46
2022/08/27 01:22:10;;;;;;;11.02;5.05;;;;;;;13.14;97.37;101614.00;5115146;28;20028;-46
2022/08/27 01:24:41;;;;;;;7.97;4.32;;;;;;;12.99;96.99;101611.81;5115631;28;20048;-47
2022/08/27 01:27:09;;;;;;;12.30;4.93;;;;;;;12.92;97.54;101616.72;5115857;27;20470;-46
2022/08/27 01:29:36;;;;;;;9.80;4.57;;;;;;;12.97;98.90;101617.75;5114659;28;20564;-48
2022/08/27 01:32:09;;;;;;;11.02;5.35;;;;;;;12.97;100.00;101608.28;5115778;28;20050;-48
2022/08/27 01:34:35;;;;;;;8.07;4.88;;;;;;;12.87;99.73;101606.22;5115486;28;20027;-47
2022/08/27 01:37:01;;;;;;;12.10;5.43;;;;;;;12.88;99.86;101609.72;5114710;28;20027;-45
2022/08/27 01:39:26;;;;;;;10.65;4.88;;;;;;;12.84;99.18;101606.13;5115102;28;20031;-46
2022/08/27 01:41:51;;;;;;;8.63;5.00;;;;;;;12.74;99.41;101606.66;5115209;28;20027;-47
2022/08/27 01:44:16;;;;;;;8.65;5.28;;;;;;;12.66;99.14;101599.50;5114523;28;20486;-47
2022/08/27 01:46:42;;;;;;;12.00;5.28;;;;;;;12.78;100.00;101601.66;5115472;28;20024;-47
2022/08/27 01:49:09;;;;;;;14.00;5.43;;;;;;;12.76;100.00;101603.28;5114614;28;20051;-47
2022/08/27 01:51:34;;;;;;;10.27;5.77;;;;;;;12.74;100.00;101602.34;5115031;28;20502;-49
2022/08/27 01:54:00;;;;;;;10.70;5.40;;;;;;;12.81;100.00;101613.81;5115491;27;20273;-44
2022/08/27 01:56:25;;;;;;;9.60;5.45;;;;;;;12.72;100.00;101604.03;5114348;28;20063;-45
2022/08/27 01:58:51;;;;;;;13.88;5.72;;;;;;;12.74;100.00;101607.53;5115134;28;20030;-47
2022/08/27 02:01:16;;;;;;;13.07;5.95;;;;;;;12.80;100.00;101602.56;5114849;28;20038;-46
2022/08/27 02:03:43;;;;;;;9.95;5.40;;;;;;;12.78;100.00;101601.66;5114489;27;20113;-43
2022/08/27 02:06:10;;;;;;;9.57;5.03;;;;;;;12.70;100.00;101607.41;5114944;28;20023;-47
2022/08/27 02:08:36;;;;;;;11.07;5.07;;;;;;;12.57;100.00;101603.53;5114870;28;20027;-43
2022/08/27 02:11:03;;;;;;;15.65;6.15;;;;;;;12.63;100.00;101599.44;5114333;28;20034;-43
2022/08/27 02:13:28;;;;;;;9.88;5.57;;;;;;;12.74;100.00;101596.31;5114709;28;20020;-45
2022/08/27 02:15:54;;;;;;;10.25;5.65;;;;;;;12.73;100.00;101597.13;5114944;28;20020;-46
2022/08/27 02:18:19;;;;;;;10.27;5.30;;;;;;;12.51;100.00;101599.00;5113817;28;20020;-46
2022/08/27 02:20:47;;;;;;;11.63;5.38;;;;;;;12.66;100.00;101601.25;5114660;28;20023;-46
2022/08/27 02:23:13;;;;;;;9.10;5.97;;;;;;;12.63;100.00;101598.56;5114378;28;20445;-42
2022/08/27 02:25:39;;;;;;;10.98;5.75;;;;;;;12.62;100.00;101596.78;5113684;28;20467;-47
2022/08/27 02:28:05;;;;;;;9.68;5.35;;;;;;;12.56;100.00;101587.09;5114539;28;20441;-46
2022/08/27 02:30:33;;;;;;;10.05;5.40;;;;;;;12.53;100.00;101592.19;5114393;28;20103;-44
2022/08/27 02:33:00;;;;;;;11.50;6.20;;;;;;;12.63;100.00;101594.25;5113788;28;20031;-44
2022/08/27 02:35:26;;;;;;;8.90;5.53;;;;;;;12.38;100.00;101587.38;5114081;28;20066;-46
2022/08/27 02:37:52;;;;;;;10.95;5.22;;;;;;;12.29;100.00;101581.88;5114462;28;20051;-46
2022/08/27 02:40:19;;;;;;;9.10;5.03;;;;;;;12.24;100.00;101588.59;5113452;28;20045;-45
2022/08/27 02:42:45;;;;;;;;;;;;;;;12.40;99.61;101580.56;5114752;28;20037;-46
2022/08/27 02:45:13;;;;;;;7.55;5.25;;;;;;;12.15;100.00;101582.31;5114438;28;19911;-47
2022/08/27 02:47:40;;;;;;;9.05;4.93;;;;;;;12.10;100.00;101581.25;5113303;28;20482;-42
2022/08/27 02:50:07;;;;;;;10.90;5.40;;;;;;;12.07;100.00;101585.44;5114166;28;20107;-45
2022/08/27 02:52:33;;;;;;;11.75;5.57;;;;;;;11.99;100.00;101582.59;5112830;28;20077;-44
2022/08/27 02:54:59;;;;;;;9.20;5.88;;;;;;;12.04;100.00;101590.50;5114048;28;20024;-48
2022/08/27 02:57:25;;;;;;;11.52;5.90;;;;;;;12.01;100.00;101586.13;5113796;28;20043;-46
2022/08/27 02:59:51;;;;;;;9.70;5.88;;;;;;;12.00;100.00;101586.94;5113302;28;20020;-48
2022/08/27 03:02:17;;;;;;;9.55;5.80;;;;;;;11.98;100.00;101589.47;5113929;28;20027;-46
2022/08/27 03:04:43;;;;;;;11.73;6.13;;;;;;;12.08;100.00;101585.50;5113892;28;20038;-48
2022/08/27 03:07:09;;;;;;;10.80;5.78;;;;;;;12.17;100.00;101582.34;5113287;28;20098;-47
2022/08/27 03:09:34;;;;;;;10.70;6.18;;;;;;;12.17;100.00;101593.59;5113768;28;20123;-47
2022/08/27 03:12:00;;;;;;;9.98;6.43;;;;;;;12.18;100.00;101590.16;5113907;28;20027;-44
2022/08/27 03:14:27;;;;;;;12.65;6.28;;;;;;;12.25;100.00;101583.50;5112744;28;20050;-44
2022/08/27 03:16:52;;;;;;;10.52;5.53;;;;;;;12.25;100.00;101585.19;5113655;28;20489;-43
2022/08/27 03:19:18;;;;;;;12.52;6.15;;;;;;;12.32;100.00;101587.19;5113400;28;20027;-48
2022/08/27 03:21:43;;;;;;;8.80;6.13;;;;;;;12.39;100.00;101583.97;5112948;28;20026;-48
2022/08/27 03:24:09;;;;;;;8.57;5.68;;;;;;;12.45;100.00;101588.47;5113842;28;20076;-44
2022/08/27 03:26:34;;;;;;;10.27;5.82;;;;;;;12.41;100.00;101591.75;5113338;28;20032;-45
2022/08/27 03:28:59;;;;;;;11.00;6.15;;;;;;;12.35;100.00;101588.16;5112725;28;20059;-45
2022/08/27 03:31:28;;;;;;;9.75;6.45;;;;;;;12.33;100.00;101591.50;5113291;28;20106;-45
2022/08/27 03:34:00;;;;;;;9.68;6.00;;;;;;;12.38;100.00;101587.38;5113473;28;20027;-45
2022/08/27 03:36:27;;;;;;;14.13;6.45;;;;;;;12.37;100.00;101588.22;5112583;28;20063;-46
2022/08/27 03:38:53;;;;;;;10.05;6.40;;;;;;;12.39;100.00;101586.53;5113320;28;20451;-45
2022/08/27 03:41:19;;;;;;;11.23;6.05;;;;;;;12.29;100.00;101589.66;5113657;28;20475;-47
2022/08/27 03:43:44;;;;;;;9.93;6.60;;;;;;;12.28;100.00;101591.38;5112650;28;20027;-47
2022/08/27 03:46:10;;;;;;;10.65;6.30;;;;;;;12.25;100.00;101598.13;5113307;28;20024;-44
2022/08/27 03:48:36;;;;;;;11.07;6.60;;;;;;;12.23;100.00;101597.22;5112980;28;20028;-46
2022/08/27 03:51:12;;;;;;;10.60;7.18;;;;;;;12.16;100.00;101602.16;5113547;28;20023;-43
2022/08/27 03:53:39;;;;;;;9.60;6.10;;;;;;;12.14;100.00;101596.03;5113474;28;20062;-49
2022/08/27 03:56:05;;;;;;;12.55;7.32;;;;;;;12.12;100.00;101589.97;5112596;28;20028;-46
2022/08/27 03:58:32;;;;;;;10.57;6.55;;;;;;;12.05;100.00;101593.13;5113041;28;20028;-45
2022/08/27 04:00:58;;;;;;;13.23;7.43;;;;;;;12.08;100.00;101588.06;5113448;28;20080;-45
2022/08/27 04:03:23;;;;;;;10.40;7.38;;;;;;;12.11;100.00;101598.53;5112011;28;20032;-45
2022/08/27 04:05:53;;;;;;;13.00;7.18;;;;;;;12.11;100.00;101595.94;5116970;28;20066;-47
2022/08/27 04:08:20;;;;;;;16.77;7.72;;;;;;;12.07;100.00;101588.91;5117081;28;20023;-45
2022/08/27 04:10:45;;;;;;;13.63;7.65;;;;;;;12.04;100.00;101590.50;5116508;28;20106;-43
2022/08/27 04:13:10;;;;;;;12.05;7.47;;;;;;;12.04;100.00;101593.97;5117063;28;20114;-47
2022/08/27 04:15:42;;;;;;;12.88;6.90;;;;;;;11.97;100.00;101595.44;5117103;28;20467;-43
2022/08/27 04:18:07;;;;;;;12.82;7.72;;;;;;;11.95;100.00;101591.91;5116560;28;20027;-45
2022/08/27 04:20:33;;;;;;;12.30;7.50;;;;;;;12.02;100.00;101582.72;5116975;28;20024;-43
2022/08/27 04:22:58;;;;;;;9.85;6.45;;;;;;;11.96;100.00;101585.94;5117123;28;20028;-47
2022/08/27 04:25:23;;;;;;;11.18;6.68;;;;;;;11.96;100.00;101592.81;5115927;28;20494;-44
2022/08/27 04:27:49;;;;;;;8.57;6.25;;;;;;;11.92;100.00;101589.22;5116830;28;20031;-44
2022/08/27 04:30:14;;;;;;;12.18;6.63;;;;;;;11.82;100.00;101585.41;5116901;28;20020;-42
2022/08/27 04:32:40;;;;;;;13.20;7.07;;;;;;;11.77;100.00;101586.94;5116191;27;20031;-43
2022/08/27 04:35:06;;;;;;;11.13;6.68;;;;;;;11.81;100.00;101596.59;5116716;28;20038;-44
2022/08/27 04:37:32;;;;;;;10.57;6.72;;;;;;;11.80;100.00;101601.66;5116171;28;20487;-44
2022/08/27 04:39:58;;;;;;;9.00;6.45;;;;;;;11.78;100.00;101599.03;5115868;28;20023;-43
2022/08/27 04:42:23;;;;;;;10.88;7.22;;;;;;;11.84;100.00;101599.25;5116285;28;20031;-43
2022/08/27 04:44:49;;;;;;;11.93;7.60;;;;;;;11.92;100.00;101603.84;5116701;28;20479;-43
2022/08/27 04:47:15;;;;;;;11.65;7.53;;;;;;;11.94;100.00;101594.41;5115804;28;20035;-42
2022/08/27 04:49:42;;;;;;;12.27;8.60;;;;;;;11.96;100.00;101603.16;5116619;28;20031;-42
2022/08/27 04:52:07;;;;;;;10.70;8.25;;;;;;;11.97;100.00;101603.19;5115767;27;20034;-42
2022/08/27 04:54:33;;;;;;;11.75;8.15;;;;;;;11.93;100.00;101606.47;5116106;28;20024;-43
2022/08/27 04:57:03;;;;;;;13.50;8.18;;;;;;;11.95;100.00;101606.53;5116273;28;20027;-43
2022/08/27 04:59:30;;;;;;;12.35;8.40;;;;;;;11.91;100.00;101602.06;5115433;28;20032;-45
2022/08/27 05:01:55;;;;;;;12.57;9.02;;;;;;;12.01;100.00;101604.19;5116302;28;20031;-43
2022/08/27 05:04:20;;;;;;;15.38;9.40;;;;;;;11.99;100.00;101600.66;5116019;28;20019;-43
2022/08/27 05:06:47;;;;;;;13.75;9.30;;;;;;;12.13;100.00;101596.88;5115400;28;20019;-45
2022/08/27 05:09:17;;;;;;;17.00;9.70;;;;;;;12.14;100.00;101608.09;5116110;28;20024;-45
2022/08/27 05:11:42;;;;;;;15.10;9.20;;;;;;;12.18;100.00;101604.78;5116095;28;20028;-43
2022/08/27 05:14:12;;;;;;;14.15;9.40;;;;;;;12.22;100.00;101610.94;5115408;28;20023;-43
2022/08/27 05:16:38;;;;;;;12.27;8.52;;;;;;;12.23;100.00;101602.38;5115384;28;20046;-47
2022/08/27 05:19:11;;;;;;;12.90;8.25;;;;;;;12.32;100.00;101613.03;5115893;28;20384;-43
2022/08/27 05:21:44;;;;;;;13.95;9.85;;;;;;;12.40;100.00;101616.75;5114807;28;20027;-45
2022/08/27 05:24:09;;;;;;;13.80;9.07;;;;;;;12.50;100.00;101613.66;5115823;28;20092;-46
2022/08/27 05:26:35;;;;;;;13.23;9.32;;;;;;;12.60;100.00;101613.97;5115748;28;20595;-44
2022/08/27 05:29:02;;;;;;;11.68;8.95;;;;;;;12.67;100.00;101609.03;5114871;28;20451;-47
2022/08/27 05:31:28;;;;;;;12.85;9.00;;;;;;;12.78;100.00;101614.59;5115349;28;20370;-48
2022/08/27 05:33:55;;;;;;;12.60;8.93;;;;;;;12.90;100.00;101614.09;5115681;28;20475;-44
2022/08/27 05:36:25;;;;;;;14.48;9.75;;;;;;;13.02;100.00;101613.59;5114603;28;20055;-46
2022/08/27 05:38:51;;;;;;;13.50;10.77;;;;;;;13.15;100.00;101613.16;5115372;28;20538;-46
2022/08/27 05:41:24;;;;;;;13.32;9.52;;;;;;;13.23;100.00;101607.34;5114595;28;20046;-48
2022/08/27 05:43:50;;;;;;;13.80;10.63;;;;;;;13.47;100.00;101613.31;5115617;28;20049;-43
2022/08/27 05:46:18;;;;;;;20.88;10.65;;;;;;;13.56;100.00;101622.19;5115073;28;20036;-46
2022/08/27 05:48:44;;;;;;;16.83;10.10;;;;;;;13.64;100.00;101612.94;5114617;28;20016;-43
2022/08/27 05:51:16;;;;;;;16.48;12.63;;;;;;;13.75;100.00;101608.03;5115255;28;20027;-43
2022/08/27 05:53:42;;;;;;;17.02;10.73;;;;;;;13.85;100.00;101615.25;5115429;28;20118;-43
2022/08/27 05:56:19;;;;;;;18.30;10.70;;;;;;;13.93;100.00;101613.78;5114548;28;20031;-44
2022/08/27 06:01:33;;;;;;;17.48;12.07;;;;;;;14.22;100.00;101615.41;5114942;28;20092;-43
2022/08/27 06:03:59;;;;;;;18.27;11.75;;;;;;;14.33;100.00;101617.44;5114470;28;20023;-43
2022/08/27 06:06:24;;;;;;;18.23;10.38;;;;;;;14.42;100.00;101618.50;5114917;28;20023;-42
2022/08/27 06:08:51;;;;;;;15.52;9.98;;;;;;;14.45;100.00;101624.66;5114977;28;20081;-43
2022/08/27 06:11:20;;;;;;;17.50;9.55;;;;;;;14.54;100.00;101628.31;5113899;27;20024;-43
2022/08/27 06:13:46;;;;;;;14.10;9.20;;;;;;;14.62;100.00;101632.00;5114910;28;20046;-44
2022/08/27 06:16:15;;;;;;;16.95;9.60;;;;;;;14.68;100.00;101636.50;5114786;28;20019;-43
2022/08/27 06:18:42;;;;;;;19.83;9.98;;;;;;;14.81;100.00;101639.44;5114091;28;20023;-47
2022/08/27 06:21:07;;;;;;;17.10;9.98;;;;;;;14.97;100.00;101632.03;5114861;28;20015;-45
2022/08/27 06:23:33;;;;;;;18.08;8.80;;;;;;;15.09;100.00;101636.63;5113602;28;20038;-44
2022/08/27 06:25:59;;;;;;;18.90;8.43;;;;;;;15.15;100.00;101635.06;5114752;28;20055;-43
2022/08/27 06:28:30;;;;;;;15.10;8.20;;;;;;;15.30;100.00;101631.94;5113345;28;20031;-44
2022/08/27 06:31:06;;;;;;;13.75;7.47;;;;;;;15.35;100.00;101634.66;5114042;28;20062;-44
2022/08/27 06:33:32;;;;;;;11.98;7.53;;;;;;;15.45;100.00;101623.63;5114455;28;20050;-46
2022/08/27 06:36:01;;;;;;;11.50;7.07;;;;;;;15.53;100.00;101631.59;5114204;28;20530;-43
2022/08/27 06:38:28;;;;;;;11.23;6.78;;;;;;;15.70;99.38;101633.66;5113240;28;20043;-44
2022/08/27 06:40:55;;;;;;;18.88;7.90;;;;;;;15.69;98.69;101632.78;5114369;28;20026;-43
2022/08/27 06:43:20;;;;;;;12.65;6.97;;;;;;;15.72;98.13;101630.22;5113801;28;20383;-43
2022/08/27 06:45:46;;;;;;;12.32;6.65;;;;;;;15.80;97.25;101628.69;5113621;28;20032;-43
2022/08/27 06:48:11;;;;;;;12.95;6.72;;;;;;;15.99;97.56;101631.69;5114377;28;20023;-47
2022/08/27 06:50:39;;;;;;;18.23;6.72;;;;;;;15.99;96.59;101636.88;5114078;28;20019;-43
2022/08/27 06:53:04;;;;;;;24.58;7.35;;;;;;;16.11;96.50;101629.34;5113475;27;20019;-43
2022/08/27 06:55:30;;;;;;;21.02;7.50;;;;;;;16.13;94.54;101632.81;5113808;28;20471;-44
2022/08/27 06:57:55;;;;;;;20.35;7.22;;;;;;;16.21;95.24;101630.38;5113921;28;20028;-47
2022/08/27 07:00:20;;;;;;;11.15;6.00;;;;;;;16.34;94.34;101626.28;5113056;28;20043;-43
2022/08/27 07:02:46;;;;;;;11.95;5.95;;;;;;;16.42;93.84;101629.00;5113839;28;20403;-45
2022/08/27 07:05:11;;;;;;;13.23;5.88;;;;;;;16.44;92.91;101630.78;5113880;28;20064;-43
2022/08/27 07:07:36;;;;;;;16.65;6.20;;;;;;;16.52;91.98;101632.66;5112804;28;20039;-44
2022/08/27 07:10:03;;;;;;;15.13;5.72;;;;;;;16.48;91.12;101629.13;5113800;28;20023;-44
2022/08/27 07:12:28;;;;;;;9.95;5.53;;;;;;;16.62;91.39;101639.78;5113350;28;20363;-45
2022/08/27 07:14:54;;;;;;;12.18;5.63;;;;;;;16.77;91.04;101639.16;5113097;28;20529;-46
2022/08/27 07:17:19;;;;;;;11.75;5.43;;;;;;;16.92;89.14;101638.56;5113425;28;20022;-44
2022/08/27 07:19:45;;;;;;;14.52;5.80;;;;;;;17.04;88.13;101638.78;5112970;28;20012;-44
2022/08/27 07:22:11;;;;;;;9.65;5.55;;;;;;;17.20;88.25;101639.00;5113646;28;20023;-43
2022/08/27 07:24:37;;;;;;;9.85;5.18;;;;;;;17.27;85.82;101646.03;5113362;28;20016;-43
2022/08/27 07:27:02;;;;;;;9.55;4.82;;;;;;;17.31;84.31;101642.63;5112646;28;20027;-42
2022/08/27 07:29:27;;;;;;;12.68;5.07;;;;;;;17.51;81.86;101649.88;5113434;28;20100;-43
2022/08/27 07:31:52;;;;;;;9.38;4.50;;;;;;;17.60;81.30;101648.25;5113418;28;20032;-45
2022/08/27 07:34:18;;;;;;;10.13;4.70;;;;;;;17.71;80.25;101645.75;5112442;28;20072;-44
2022/08/27 07:36:43;;;;;;;10.90;5.18;;;;;;;17.72;80.40;101644.91;5113455;28;20027;-44
2022/08/27 07:39:08;;;;;;;10.57;5.30;;;;;;;17.79;79.23;101645.88;5112842;28;20051;-43
2022/08/27 07:44:23;;;;;;;10.57;4.70;;;;;;;17.87;78.52;101653.78;5112160;28;20493;-46
2022/08/27 07:44:26;;;;;;;10.88;5.20;;;;;;;17.96;79.38;101656.56;5113036;28;20080;-46
2022/08/27 07:46:53;;;;;;;9.45;5.20;;;;;;;17.89;76.95;101647.72;5113442;28;20064;-43
2022/08/27 07:49:20;;;;;;;11.25;5.10;;;;;;;17.81;77.51;101649.38;5112333;28;20108;-43
2022/08/27 07:51:46;;;;;;;;;;;;;;;18.02;81.87;101653.13;5113716;28;20055;-43
2022/08/27 07:54:11;;;;;;;11.40;4.73;;;;;;;17.82;80.05;101656.34;5113215;28;20000;-47
2022/08/27 07:56:36;;;;;;;8.40;4.85;;;;;;;17.82;79.18;101655.47;5112313;28;20026;-42
2022/08/27 07:59:02;;;;;;;9.30;4.95;;;;;;;17.89;77.87;101662.50;5113311;28;20467;-47
2022/08/27 08:01:28;;;;;;;10.02;5.32;;;;;;;17.91;76.94;101660.81;5112869;28;20145;-43
2022/08/27 08:03:53;;;;;;;10.50;5.45;;;;;;;17.93;75.61;101656.50;5112384;28;20381;-43
2022/08/27 08:06:18;;;;;;;10.68;5.18;;;;;;;17.87;75.04;101659.00;5112976;28;20028;-43
2022/08/27 08:08:44;;;;;;;9.45;4.88;;;;;;;17.89;76.16;101663.38;5113119;28;20032;-45
2022/08/27 08:11:12;;;;;;;10.18;4.85;;;;;;;17.99;77.73;101655.72;5112525;28;20072;-44
2022/08/27 08:13:38;;;;;;;8.80;4.75;;;;;;;18.02;74.12;101653.13;5112732;28;20047;-45
2022/08/27 08:16:05;;;;;;;11.48;5.20;;;;;;;18.18;75.09;101649.84;5112689;28;20028;-42
2022/08/27 08:18:30;;;;;;;10.10;5.20;;;;;;;18.34;75.54;101644.78;5112894;28;20024;-44
2022/08/27 08:21:00;;;;;;;14.10;4.78;;;;;;;18.46;74.24;101654.47;5112931;28;20024;-44
2022/08/27 08:23:27;;;;;;;14.05;5.72;;;;;;;18.50;73.68;101651.03;5111769;28;20036;-43
2022/08/27 08:25:52;;;;;;;13.60;5.32;;;;;;;18.41;72.40;101655.31;5113206;28;20039;-43
2022/08/27 08:28:18;;;;;;;8.93;4.85;;;;;;;18.38;72.71;101657.00;5112868;28;20066;-47
2022/08/27 08:30:43;;;;;;;8.25;3.10;;;;;;;18.33;69.66;101656.09;5112261;28;20073;-44
2022/08/27 08:33:08;;;;;;;8.05;2.72;;;;;;;18.51;69.95;101660.63;5113014;28;20375;-44
2022/08/27 08:35:37;;;;;;;8.30;2.80;;;;;;;18.91;68.68;101663.59;5112548;28;20055;-44
2022/08/27 08:38:02;;;;;;;8.23;2.83;;;;;;;19.15;67.32;101664.69;5112004;28;20118;-44
2022/08/27 08:40:34;;;;;;;6.55;2.58;;;;;;;19.19;64.60;101658.59;5112473;28;20111;-45
2022/08/27 08:43:00;;;;;;;8.70;2.60;;;;;;;19.20;66.04;101666.44;5112910;28;20055;-43
2022/08/27 08:45:30;;;;;;;10.52;2.83;;;;;;;19.16;65.48;101667.28;5111667;28;20019;-46
2022/08/27 08:47:59;;;;;;;6.32;2.47;;;;;;;19.30;64.74;101664.78;5112793;28;20035;-44
2022/08/27 08:50:40;;;;;;;5.93;2.80;;;;;;;19.51;63.80;101661.41;5112460;28;20031;-43
2022/08/27 08:53:18;;;;;;;6.13;2.33;;;;;;;20.00;62.74;101660.78;5115502;28;20451;-45
2022/08/27 08:55:50;;;;;;;7.45;2.58;;;;;;;20.32;61.63;101657.41;5116537;28;20027;-45
2022/08/27 08:58:22;;;;;;;7.88;2.42;;;;;;;20.59;60.52;101660.91;5115339;28;20034;-43
2022/08/27 09:00:56;;;;;;;5.53;2.25;;;;;;;20.72;59.26;101657.47;5116165;28;20028;-43
2022/08/27 09:03:22;;;;;;;5.82;1.98;;;;;;;20.94;59.11;101667.97;5116164;28;20069;-44
2022/08/27 09:06:04;;;;;;;7.13;2.30;;;;;;;20.88;59.51;101667.94;5115571;28;20024;-47
2022/08/27 09:08:32;;;;;;;6.97;2.53;;;;;;;20.88;57.92;101663.56;5115886;28;20475;-47
2022/08/27 09:11:06;;;;;;;6.28;2.30;;;;;;;20.93;58.59;101676.69;5115965;28;20499;-43
2022/08/27 09:13:37;;;;;;;7.65;2.30;;;;;;;21.08;57.52;101670.53;5114983;28;20424;-43
2022/08/27 09:16:04;;;;;;;6.32;2.55;;;;;;;20.99;57.08;101676.69;5116131;28;20027;-44
2022/08/27 09:18:30;;;;;;;6.75;2.30;;;;;;;20.97;56.00;101675.81;5115691;27;20027;-43
2022/08/27 09:21:07;;;;;;;4.85;2.10;;;;;;;20.92;57.78;101674.06;5115284;28;20486;-48
2022/08/27 09:23:38;;;;;;;;;;;;;;;21.10;61.08;101678.44;5115951;28;20084;-47
2022/08/27 09:26:03;;;;;;;5.38;2.33;;;;;;;20.92;56.51;101674.06;5115754;28;20329;-47
2022/08/27 09:31:16;;;;;;;4.63;1.88;;;;;;;20.89;56.23;101670.56;5115870;28;20074;-44
2022/08/27 09:33:42;;;;;;;6.32;2.17;;;;;;;20.93;56.23;101676.69;5114826;28;20414;-44
2022/08/27 09:36:11;;;;;;;7.05;2.17;;;;;;;20.68;55.97;101687.13;5115559;28;20479;-43
2022/08/27 09:38:40;;;;;;;6.63;2.13;;;;;;;20.76;56.97;101678.41;5115105;28;20064;-45
2022/08/27 09:41:13;;;;;;;6.40;2.15;;;;;;;20.87;56.32;101682.78;5114895;28;20016;-46
2022/08/27 09:43:42;;;;;;;6.13;2.05;;;;;;;21.29;56.60;101663.53;5115468;28;20106;-44
2022/08/27 09:46:22;;;;;;;7.28;1.95;;;;;;;21.58;55.10;101666.13;5115482;28;20076;-46
2022/08/27 09:48:48;;;;;;;7.32;1.85;;;;;;;22.22;52.39;101669.34;5114499;28;20044;-48
2022/08/27 09:51:18;;;;;;;4.97;1.85;;;;;;;22.35;51.19;101676.25;5115394;28;20020;-43
2022/08/27 09:53:49;;;;;;;4.63;1.80;;;;;;;23.07;49.61;101670.47;5115507;28;20084;-43
2022/08/27 09:56:48;;;;;;;7.32;2.33;;;;;;;23.29;51.47;101672.06;5114268;28;20447;-44
2022/08/27 09:59:26;;;;;;;7.28;2.15;;;;;;;24.00;49.23;101672.97;5114972;28;20019;-44
2022/08/27 10:02:02;;;;;;;10.80;2.35;;;;;;;24.28;45.90;101669.97;5114199;28;20024;-45
2022/08/27 10:04:42;;;;;;;5.50;2.22;;;;;;;23.73;48.00;101679.44;5114922;28;20047;-44
2022/08/27 10:07:43;;;;;;;7.15;2.00;;;;;;;23.08;49.03;101677.47;5115010;28;20051;-44
2022/08/27 10:10:34;;;;;;;7.95;1.80;;;;;;;22.39;50.52;101673.63;5090258;28;20032;-46
2022/08/27 10:13:14;;;;;;;6.22;1.83;;;;;;;22.16;50.55;101669.38;5115070;28;20028;-44
2022/08/27 10:15:50;;;;;;;5.20;2.00;;;;;;;22.15;49.21;101673.72;5113915;28;20023;-43
2022/08/27 10:18:40;;;;;;;5.35;2.30;;;;;;;22.60;49.74;101670.00;5114511;28;20374;-44
2022/08/27 10:21:44;;;;;;;5.40;1.95;;;;;;;22.48;50.95;101670.97;5114781;28;20482;-45
2022/08/27 10:24:17;;;;;;;5.18;1.85;;;;;;;22.32;49.56;101660.53;5113923;28;20099;-44
2022/08/27 10:26:56;;;;;;;5.38;1.95;;;;;;;22.33;50.96;101659.63;5114933;28;20023;-43
2022/08/27 10:29:51;;;;;;;6.40;1.67;;;;;;;22.25;50.06;101666.69;5114427;28;20024;-44
2022/08/27 10:32:50;;;;;;;5.72;1.80;;;;;;;22.22;50.24;101663.19;5114271;28;20115;-45
2022/08/27 10:35:27;;;;;;;8.10;1.90;;;;;;;22.31;51.10;101660.50;5114307;28;20447;-43
2022/08/27 10:38:29;;;;;;;7.90;2.13;;;;;;;22.45;51.05;101665.72;5113373;28;20055;-45
2022/08/27 10:41:16;;;;;;;7.63;1.88;;;;;;;22.88;48.88;101668.03;5114482;28;20031;-45
2022/08/27 10:44:00;;;;;;;5.50;1.70;;;;;;;23.18;48.23;101666.03;5113522;28;20030;-48
2022/08/27 10:47:04;;;;;;;6.00;1.92;;;;;;;23.19;48.88;101659.88;5114080;28;20028;-45
2022/08/27 10:49:45;;;;;;;5.90;1.55;;;;;;;23.15;50.31;101658.13;5110663;28;20530;-46
2022/08/27 10:52:27;;;;;;;5.95;1.52;;;;;;;22.76;49.14;101660.22;5113460;28;20020;-43
2022/08/27 10:54:59;;;;;;;7.97;1.83;;;;;;;22.57;49.65;101652.50;5114156;28;20036;-43
2022/08/27 10:57:39;;;;;;;6.60;1.73;;;;;;;22.56;50.13;101658.63;5113800;28;20055;-47
2022/08/27 11:00:12;;;;;;;7.68;2.10;;;;;;;22.41;49.09;101648.25;5114196;28;20020;-43
2022/08/27 11:02:44;;;;;;;4.10;1.70;;;;;;;22.47;48.96;101658.72;5113862;28;20028;-45
2022/08/27 11:05:30;;;;;;;4.78;1.73;;;;;;;24.25;47.81;101655.09;5113174;28;20027;-49
2022/08/27 11:07:58;;;;;;;8.57;2.08;;;;;;;25.35;43.24;101650.66;5113918;28;20111;-43
2022/08/27 11:10:29;;;;;;;7.03;1.85;;;;;;;25.23;43.61;101651.72;5113754;28;20080;-48
2022/08/27 11:12:59;;;;;;;10.90;1.50;;;;;;;24.49;43.13;101663.50;5113169;28;20030;-45
2022/08/27 11:15:31;;;;;;;6.05;1.80;;;;;;;23.75;44.94;101656.63;5112808;28;20444;-43
2022/08/27 11:18:07;;;;;;;5.53;1.63;;;;;;;23.04;46.90;101663.47;5113598;28;20455;-43
2022/08/27 11:20:44;;;;;;;5.80;1.42;;;;;;;22.53;48.12;101656.03;5112828;28;20023;-43
2022/08/27 11:23:13;;;;;;;;;;;;;;;22.76;49.78;101657.59;5114216;28;20028;-43
2022/08/27 11:25:57;;;;;;;5.93;1.80;;;;;;;22.14;49.24;101650.13;5113525;28;20406;-48
2022/08/27 11:28:29;;;;;;;6.55;1.70;;;;;;;21.91;49.02;101645.88;5113334;28;20103;-44
2022/08/27 11:31:07;;;;;;;5.35;1.38;;;;;;;22.08;50.12;101651.03;5113283;28;20023;-43